Terminal Aerodrome Forecast
Issued by NWS

Home | Current Version | Previous Version | Text Only | Print | Product List | Glossary On
Versions: 1 2 3 4 5 6 7 8 9 10 11 12 13
000
FTUS45 KRIW 011700
TAFJAC
TAF
KJAC 011721Z 0118/0218 21012G20KT P6SM VCSH SCT040 BKN060
     FM012100 24015G24KT P6SM VCSH SCT030 BKN040
     FM020200 22011KT P6SM VCSH SCT050
     FM021200 VRB06KT P6SM VCSH BKN040
      AMD LTD TO CLD VIS AND WIND=

USA.gov is the U.S. government's official web portal to all federal, state and local government web resources and services.